createdAt,value
2019-04-11T00:02:25.056Z,11.70
2019-04-11T00:04:55.309Z,11.70
2019-04-11T00:07:25.513Z,11.80
2019-04-11T00:09:56.752Z,11.70
2019-04-11T00:12:27.293Z,11.70
2019-04-11T00:15:00.167Z,11.70
2019-04-11T00:17:30.572Z,11.60
2019-04-11T00:20:02.146Z,11.60
2019-04-11T00:22:33.299Z,11.60
2019-04-11T00:25:03.694Z,11.60
2019-04-11T00:27:35.043Z,11.50
2019-04-11T00:30:08.614Z,11.60
2019-04-11T00:32:41.424Z,11.60
2019-04-11T00:35:11.848Z,11.60
2019-04-11T00:37:43.121Z,11.60
2019-04-11T00:40:13.889Z,11.60
2019-04-11T00:42:45.747Z,11.60
2019-04-11T00:45:15.973Z,11.60
2019-04-11T00:47:47.028Z,11.60
2019-04-11T00:50:17.561Z,11.60
2019-04-11T00:52:47.787Z,11.70
2019-04-11T00:55:18.160Z,11.70
2019-04-11T00:57:49.462Z,11.60
2019-04-11T01:00:20.866Z,11.60
2019-04-11T01:02:51.198Z,11.70
2019-04-11T01:05:21.450Z,11.70
2019-04-11T01:07:51.705Z,11.70
2019-04-11T01:10:22.351Z,11.70
2019-04-11T01:12:54.327Z,11.70
2019-04-11T01:15:27.120Z,11.70
2019-04-11T01:17:58.026Z,11.70
2019-04-11T01:20:29.321Z,11.70
2019-04-11T01:22:59.747Z,11.80
2019-04-11T01:25:30.669Z,11.80
2019-04-11T01:28:00.984Z,11.70
2019-04-11T01:30:33.293Z,11.70
2019-04-11T01:33:04.563Z,11.70
2019-04-11T01:35:35.022Z,11.60
2019-04-11T01:38:06.230Z,11.60
2019-04-11T01:40:39.940Z,11.60
2019-04-11T01:43:11.876Z,11.60
2019-04-11T01:45:43.137Z,11.70
2019-04-11T01:48:21.629Z,11.70
2019-04-11T01:50:53.712Z,11.70
2019-04-11T01:53:27.049Z,11.60
2019-04-11T01:55:58.891Z,11.60
2019-04-11T01:58:29.152Z,11.70
2019-04-11T02:01:08.354Z,11.70
2019-04-11T02:03:52.192Z,11.70
2019-04-11T02:06:24.013Z,11.70
2019-04-11T02:08:55.767Z,11.60
2019-04-11T02:11:25.985Z,11.60
2019-04-11T02:14:09.850Z,11.70
2019-04-11T02:16:29.281Z,11.70
2019-04-11T02:18:59.766Z,11.60
2019-04-11T02:21:31.616Z,11.60
2019-04-11T02:24:11.860Z,11.60
2019-04-11T02:26:46.565Z,11.60
2019-04-11T02:29:19.363Z,11.50
2019-04-11T02:31:52.848Z,11.50
2019-04-11T02:34:23.524Z,11.50
2019-04-11T02:36:55.827Z,11.50
2019-04-11T02:39:27.498Z,11.50
2019-04-11T02:41:59.043Z,11.50
2019-04-11T02:44:45.811Z,11.50
2019-04-11T02:47:10.970Z,11.40
2019-04-11T02:49:35.878Z,11.40
2019-04-11T02:52:07.144Z,11.50
2019-04-11T02:54:38.877Z,11.40
2019-04-11T02:57:11.895Z,11.40
2019-04-11T02:59:44.524Z,11.40
2019-04-11T03:02:17.601Z,11.40
2019-04-11T03:04:47.952Z,11.30
2019-04-11T03:07:18.477Z,11.30
2019-04-11T03:09:49.052Z,11.40
2019-04-11T03:12:21.419Z,11.40
2019-04-11T03:15:12.597Z,11.40
2019-04-11T03:17:30.725Z,11.40
2019-04-11T03:20:08.341Z,11.40
2019-04-11T03:22:27.395Z,11.40
2019-04-11T03:24:58.315Z,11.40
2019-04-11T03:27:30.571Z,11.40
2019-04-11T03:30:03.050Z,11.40
2019-04-11T03:33:18.243Z,11.40
2019-04-11T03:38:00.400Z,11.40
2019-04-11T03:40:30.761Z,11.40
2019-04-11T03:43:00.052Z,11.50
2019-04-11T03:45:38.561Z,11.50
2019-04-11T03:48:05.980Z,11.50
2019-04-11T03:50:25.145Z,11.50
2019-04-11T03:52:53.891Z,11.50
2019-04-11T03:55:25.976Z,11.50
2019-04-11T03:57:59.207Z,11.50
2019-04-11T04:00:35.967Z,11.50
2019-04-11T04:03:04.583Z,11.50
2019-04-11T04:05:36.866Z,11.50
2019-04-11T04:08:08.729Z,11.40
2019-04-11T04:10:41.698Z,11.40
2019-04-11T04:13:16.872Z,11.40
2019-04-11T04:16:00.269Z,11.40
2019-04-11T04:18:29.898Z,11.30
2019-04-11T04:21:02.438Z,11.30
2019-04-11T04:23:36.445Z,11.20
2019-04-11T04:26:08.452Z,11.20
2019-04-11T04:28:40.870Z,11.10
2019-04-11T04:31:11.652Z,11.00
2019-04-11T04:33:42.959Z,10.80
2019-04-11T04:36:15.289Z,10.80
2019-04-11T04:38:46.513Z,10.70
2019-04-11T04:41:29.536Z,10.60
2019-04-11T04:43:50.439Z,10.60
2019-04-11T04:46:34.782Z,10.60
2019-04-11T04:48:53.954Z,10.50
2019-04-11T04:51:24.622Z,10.40
2019-04-11T04:53:55.708Z,10.30
2019-04-11T04:56:30.752Z,10.20
2019-04-11T04:58:58.944Z,10.20
2019-04-11T05:01:31.601Z,10.10
2019-04-11T05:04:02.218Z,10.10
2019-04-11T05:06:32.650Z,10.10
2019-04-11T05:09:04.307Z,10.00
2019-04-11T05:11:36.039Z,9.90
2019-04-11T05:14:07.205Z,9.90
2019-04-11T05:16:37.696Z,9.80
2019-04-11T05:19:08.548Z,9.70
2019-04-11T05:21:38.849Z,9.70
2019-04-11T05:24:10.268Z,9.60
2019-04-11T05:26:42.243Z,9.60
2019-04-11T05:29:15.516Z,9.60
2019-04-11T05:31:46.970Z,9.60
2019-04-11T05:34:20.176Z,9.60
2019-04-11T05:36:53.258Z,9.60
2019-04-11T05:39:25.532Z,9.60
2019-04-11T05:41:56.705Z,9.60
2019-04-11T05:44:28.401Z,9.70
2019-04-11T05:47:01.015Z,9.70
2019-04-11T05:49:45.102Z,9.70
2019-04-11T05:52:15.822Z,9.70
2019-04-11T05:54:51.373Z,9.80
2019-04-11T05:57:26.851Z,9.80
2019-04-11T05:59:55.175Z,9.90
2019-04-11T06:02:37.441Z,10.00
2019-04-11T06:05:09.414Z,10.10
2019-04-11T06:07:58.177Z,10.20
2019-04-11T06:10:46.483Z,10.40
2019-04-11T06:13:30.455Z,10.40
2019-04-11T06:16:02.729Z,10.50
2019-04-11T06:18:39.659Z,10.50
2019-04-11T06:21:13.709Z,10.60
2019-04-11T06:23:49.766Z,10.60
2019-04-11T06:26:40.799Z,10.80
2019-04-11T06:29:17.407Z,11.00
2019-04-11T06:32:01.400Z,11.00
2019-04-11T06:34:36.163Z,11.00
2019-04-11T06:37:24.257Z,11.10
2019-04-11T06:39:57.834Z,11.20
2019-04-11T06:42:39.279Z,11.40
2019-04-11T06:45:19.611Z,11.40
2019-04-11T06:47:54.625Z,11.60
2019-04-11T06:50:33.427Z,11.70
2019-04-11T06:53:04.480Z,11.90
2019-04-11T06:55:37.076Z,12.10
2019-04-11T06:58:09.065Z,12.30
2019-04-11T07:00:41.051Z,12.40
2019-04-11T07:03:19.782Z,12.70
2019-04-11T07:05:48.934Z,12.80
2019-04-11T07:08:22.272Z,12.90
2019-04-11T07:10:55.245Z,12.90
2019-04-11T07:13:33.328Z,13.00
2019-04-11T07:16:04.625Z,13.10
2019-04-11T07:18:37.722Z,13.20
2019-04-11T07:21:10.615Z,13.20
2019-04-11T07:24:00.575Z,13.30
2019-04-11T07:26:33.071Z,13.30
2019-04-11T07:29:05.080Z,13.40
2019-04-11T07:31:38.023Z,13.40
2019-04-11T07:34:10.676Z,13.40
2019-04-11T07:37:00.126Z,13.50
2019-04-11T07:39:49.497Z,13.50
2019-04-11T07:42:39.064Z,13.60
2019-04-11T07:45:20.990Z,13.80
2019-04-11T07:47:58.955Z,14.10
2019-04-11T07:50:29.195Z,14.50
2019-04-11T07:53:05.006Z,14.80
2019-04-11T07:55:36.574Z,15.00
2019-04-11T07:58:23.962Z,15.20
2019-04-11T08:00:56.120Z,15.40
2019-04-11T08:03:28.006Z,15.70
2019-04-11T08:06:05.732Z,15.80
2019-04-11T08:08:41.198Z,15.80
2019-04-11T08:11:19.855Z,15.80
2019-04-11T08:13:57.893Z,15.50
2019-04-11T08:16:46.958Z,15.30
2019-04-11T08:19:22.514Z,15.30
2019-04-11T08:21:54.644Z,15.10
2019-04-11T08:24:32.356Z,15.10
2019-04-11T08:27:19.737Z,15.00
2019-04-11T08:29:52.017Z,15.00
2019-04-11T08:32:42.068Z,15.10
2019-04-11T08:35:30.366Z,15.10
2019-04-11T08:38:10.123Z,15.20
2019-04-11T08:40:51.272Z,15.10
2019-04-11T08:43:23.422Z,15.10
2019-04-11T08:45:59.214Z,15.00
2019-04-11T08:48:31.098Z,15.00
2019-04-11T08:51:11.939Z,15.10
2019-04-11T08:53:44.721Z,15.00
2019-04-11T08:56:23.145Z,14.90
2019-04-11T08:59:13.451Z,14.80
2019-04-11T09:01:46.027Z,14.70
2019-04-11T09:04:18.490Z,14.40
2019-04-11T09:06:49.230Z,14.40
2019-04-11T09:09:38.116Z,14.20
2019-04-11T09:12:10.147Z,14.30
2019-04-11T09:14:58.060Z,14.20
2019-04-11T09:17:30.340Z,14.00
2019-04-11T09:20:05.392Z,13.90
2019-04-11T09:22:37.407Z,14.00
2019-04-11T09:25:09.321Z,13.90
2019-04-11T09:27:57.679Z,14.00
2019-04-11T09:30:30.532Z,13.90
2019-04-11T09:33:02.570Z,13.80
2019-04-11T09:35:49.767Z,13.70
2019-04-11T09:38:22.168Z,13.70
2019-04-11T09:41:12.358Z,13.80
2019-04-11T09:43:44.277Z,13.70
2019-04-11T09:46:32.658Z,13.80
2019-04-11T09:49:06.939Z,13.70
2019-04-11T09:51:42.814Z,13.50
2019-04-11T09:54:15.577Z,13.40
2019-04-11T09:56:47.634Z,13.40
2019-04-11T09:59:25.656Z,13.40
2019-04-11T10:02:12.783Z,13.40
2019-04-11T10:04:44.691Z,13.40
2019-04-11T10:07:35.556Z,13.40
2019-04-11T10:10:13.308Z,13.40
2019-04-11T10:13:02.671Z,13.30
2019-04-11T10:15:35.564Z,13.30
2019-04-11T10:18:25.317Z,13.20
2019-04-11T10:20:50.933Z,13.10
2019-04-11T10:23:32.682Z,13.00
2019-04-11T10:26:03.620Z,13.00
2019-04-11T10:28:52.270Z,13.00
2019-04-11T10:31:24.192Z,13.00
2019-04-11T10:33:55.996Z,12.90
2019-04-11T10:36:38.963Z,12.80
2019-04-11T10:39:11.123Z,12.80
2019-04-11T10:41:58.102Z,12.80
2019-04-11T10:44:46.162Z,12.70
2019-04-11T10:47:18.291Z,12.70
2019-04-11T10:49:56.723Z,12.70
2019-04-11T10:52:31.825Z,12.70
2019-04-11T10:55:13.603Z,12.70
2019-04-11T10:57:46.657Z,12.80
2019-04-11T11:00:18.915Z,12.80
2019-04-11T11:03:07.091Z,12.80
2019-04-11T11:05:40.112Z,12.90
2019-04-11T11:08:17.411Z,12.80
2019-04-11T11:10:52.071Z,12.70
2019-04-11T11:13:40.751Z,12.60
2019-04-11T11:16:11.889Z,12.50
2019-04-11T11:19:20.665Z,12.60
2019-04-11T11:21:25.983Z,12.60
2019-04-11T11:24:11.823Z,12.50
2019-04-11T11:26:43.261Z,12.50
2019-04-11T11:29:17.099Z,12.60
2019-04-11T11:31:49.207Z,12.60
2019-04-11T11:34:21.995Z,12.60
2019-04-11T11:36:55.016Z,12.60
2019-04-11T11:39:33.540Z,12.50
2019-04-11T11:42:22.154Z,12.50
2019-04-11T11:44:55.679Z,12.60
2019-04-11T11:47:43.185Z,12.50
2019-04-11T11:50:18.782Z,12.60
2019-04-11T11:52:51.476Z,12.50
2019-04-11T11:55:23.276Z,12.60
2019-04-11T11:57:57.791Z,12.70
2019-04-11T12:00:30.712Z,12.80
2019-04-11T12:03:05.322Z,12.90
2019-04-11T12:05:39.124Z,12.90
2019-04-11T12:08:18.201Z,12.90
2019-04-11T12:10:51.402Z,13.10
2019-04-11T12:13:26.250Z,13.10
2019-04-11T12:16:16.041Z,13.10
2019-04-11T12:19:02.609Z,13.20
2019-04-11T12:21:34.783Z,13.10
2019-04-11T12:24:08.158Z,13.30
2019-04-11T12:26:42.765Z,13.40
2019-04-11T12:29:14.112Z,13.30
2019-04-11T12:31:48.110Z,13.30
2019-04-11T12:34:26.111Z,13.30
2019-04-11T12:36:58.005Z,13.30
2019-04-11T12:39:46.397Z,13.50
2019-04-11T12:42:18.540Z,13.60
2019-04-11T12:45:06.768Z,13.80
2019-04-11T12:47:38.544Z,13.70
2019-04-11T12:50:17.332Z,13.70
2019-04-11T12:53:04.127Z,13.80
2019-04-11T12:55:52.365Z,14.00
2019-04-11T12:58:26.951Z,13.90
2019-04-11T13:01:04.512Z,14.00
2019-04-11T13:03:48.782Z,13.90
2019-04-11T13:06:35.190Z,13.90
2019-04-11T13:09:05.816Z,13.90
2019-04-11T13:11:37.982Z,13.70
2019-04-11T13:14:12.154Z,13.60
2019-04-11T13:16:44.141Z,13.40
2019-04-11T13:19:26.069Z,13.30
2019-04-11T13:21:58.061Z,13.50
2019-04-11T13:24:48.229Z,13.30
2019-04-11T13:27:22.964Z,13.30
2019-04-11T13:30:11.336Z,13.20
2019-04-11T13:32:46.122Z,13.20
2019-04-11T13:35:20.940Z,12.90
2019-04-11T13:38:07.748Z,12.80
2019-04-11T13:40:45.259Z,12.60
2019-04-11T13:43:32.344Z,12.60
2019-04-11T13:46:10.576Z,12.40
2019-04-11T13:48:48.335Z,12.30
2019-04-11T13:51:29.421Z,12.20
2019-04-11T13:54:17.614Z,12.20
2019-04-11T13:57:07.485Z,12.30
2019-04-11T13:59:55.507Z,12.30
2019-04-11T14:02:27.310Z,12.30
2019-04-11T14:04:59.059Z,12.40
2019-04-11T14:07:34.154Z,12.60
2019-04-11T14:10:06.762Z,12.70
2019-04-11T14:12:37.188Z,12.80
2019-04-11T14:15:08.988Z,13.00
2019-04-11T14:17:43.969Z,13.10
2019-04-11T14:20:28.685Z,13.30
2019-04-11T14:23:04.559Z,13.40
2019-04-11T14:25:39.080Z,13.40
2019-04-11T14:28:10.884Z,13.40
2019-04-11T14:30:59.895Z,13.40
2019-04-11T14:33:31.729Z,13.30
2019-04-11T14:36:09.431Z,13.20
2019-04-11T14:38:46.669Z,13.20
2019-04-11T14:41:17.566Z,12.90
2019-04-11T14:43:52.359Z,12.80
2019-04-11T14:46:40.784Z,13.00
2019-04-11T14:49:12.101Z,13.00
2019-04-11T14:51:46.866Z,13.00
2019-04-11T14:54:18.831Z,12.80
2019-04-11T14:56:56.529Z,12.70
2019-04-11T14:59:31.179Z,12.60
2019-04-11T15:02:09.070Z,12.60
2019-04-11T15:04:43.673Z,12.50
2019-04-11T15:07:15.519Z,12.50
2019-04-11T15:09:47.466Z,12.40
2019-04-11T15:12:23.920Z,12.50
2019-04-11T15:14:58.473Z,12.70
2019-04-11T15:17:33.352Z,12.60
2019-04-11T15:20:23.324Z,12.40
2019-04-11T15:22:55.137Z,12.40
2019-04-11T15:25:29.931Z,12.20
2019-04-11T15:28:08.071Z,12.10
2019-04-11T15:30:58.151Z,12.10
2019-04-11T15:33:48.146Z,12.10
2019-04-11T15:36:27.880Z,11.90
2019-04-11T15:39:16.562Z,11.70
2019-04-11T15:41:48.557Z,11.70
2019-04-11T15:44:29.358Z,11.70
2019-04-11T15:47:01.201Z,11.60
2019-04-11T15:49:38.913Z,11.50
2019-04-11T15:52:11.052Z,11.40
2019-04-11T15:54:53.480Z,11.30
2019-04-11T15:57:28.889Z,11.20
2019-04-11T16:00:13.579Z,11.10
2019-04-11T16:02:46.261Z,11.10
2019-04-11T16:05:18.100Z,11.00
2019-04-11T16:08:10.958Z,11.00
2019-04-11T16:10:52.038Z,10.80
2019-04-11T16:13:23.848Z,10.60
2019-04-11T16:16:05.229Z,10.60
2019-04-11T16:18:49.977Z,10.60
2019-04-11T16:21:24.294Z,10.60
2019-04-11T16:23:58.029Z,10.60
2019-04-11T16:26:29.813Z,10.60
2019-04-11T16:29:01.622Z,10.60
2019-04-11T16:31:33.546Z,10.50
2019-04-11T16:34:05.421Z,10.30
2019-04-11T16:36:37.201Z,10.30
2019-04-11T16:39:11.676Z,10.30
2019-04-11T16:41:49.217Z,10.30
2019-04-11T16:44:37.605Z,10.30
2019-04-11T16:47:09.475Z,10.20
2019-04-11T16:49:42.321Z,10.10
2019-04-11T16:52:12.629Z,10.10
2019-04-11T16:54:42.874Z,10.10
2019-04-11T16:57:13.818Z,10.10
2019-04-11T16:59:44.663Z,10.10
2019-04-11T17:02:14.980Z,10.10
2019-04-11T17:04:45.303Z,10.10
2019-04-11T17:07:23.822Z,10.10
2019-04-11T17:09:57.414Z,10.10
2019-04-11T17:12:27.811Z,10.00
2019-04-11T17:14:58.055Z,10.00
2019-04-11T17:17:31.128Z,9.90
2019-04-11T17:20:05.839Z,9.90
2019-04-11T17:22:35.283Z,9.90
2019-04-11T17:25:06.304Z,9.80
2019-04-11T17:27:36.508Z,9.90
2019-04-11T17:30:06.692Z,9.90
2019-04-11T17:32:36.930Z,9.80
2019-04-11T17:35:07.241Z,9.80
2019-04-11T17:37:37.510Z,9.80
2019-04-11T17:40:07.850Z,9.80
2019-04-11T17:42:38.033Z,9.80
2019-04-11T17:45:08.235Z,9.80
2019-04-11T17:47:38.474Z,9.80
2019-04-11T17:50:10.541Z,9.80
2019-04-11T17:52:40.963Z,9.80
2019-04-11T17:55:11.315Z,9.80
2019-04-11T17:57:41.807Z,9.80
2019-04-11T18:00:14.609Z,9.70
2019-04-11T18:02:47.254Z,9.70
2019-04-11T18:05:17.705Z,9.70
2019-04-11T18:07:49.955Z,9.60
2019-04-11T18:10:19.937Z,9.60
2019-04-11T18:12:50.142Z,9.60
2019-04-11T18:15:20.350Z,9.70
2019-04-11T18:17:50.679Z,9.70
2019-04-11T18:20:21.355Z,9.80
2019-04-11T18:22:51.553Z,9.80
2019-04-11T18:25:22.094Z,9.80
2019-04-11T18:27:52.505Z,9.80
2019-04-11T18:30:25.275Z,9.90
2019-04-11T18:32:55.499Z,9.90
2019-04-11T18:35:25.696Z,9.90
2019-04-11T18:37:55.871Z,9.90
2019-04-11T18:40:27.680Z,10.00
2019-04-11T18:42:57.871Z,10.00
2019-04-11T18:45:28.179Z,9.90
2019-04-11T18:47:58.372Z,9.90
2019-04-11T18:50:28.992Z,9.80
2019-04-11T18:53:00.132Z,9.80
2019-04-11T18:55:32.195Z,9.80
2019-04-11T18:58:04.578Z,9.80
2019-04-11T19:00:35.766Z,9.80
2019-04-11T19:03:08.059Z,9.70
2019-04-11T19:05:42.739Z,9.70
2019-04-11T19:08:13.159Z,9.70
2019-04-11T19:10:45.758Z,9.80
2019-04-11T19:13:16.971Z,9.80
2019-04-11T19:15:47.903Z,9.80
2019-04-11T19:18:18.241Z,9.90
2019-04-11T19:20:50.292Z,9.90
2019-04-11T19:23:22.194Z,9.90
2019-04-11T19:25:52.100Z,9.80
2019-04-11T19:28:24.917Z,9.80
2019-04-11T19:30:56.814Z,9.70
2019-04-11T19:33:27.243Z,9.80
2019-04-11T19:35:58.224Z,9.80
2019-04-11T19:38:30.027Z,9.80
2019-04-11T19:41:00.226Z,9.80
2019-04-11T19:43:30.516Z,9.70
2019-04-11T19:46:01.761Z,9.70
2019-04-11T19:48:32.067Z,9.70
2019-04-11T19:51:02.370Z,9.70
2019-04-11T19:53:33.527Z,9.80
2019-04-11T19:56:05.985Z,9.70
2019-04-11T19:58:37.211Z,9.70
2019-04-11T20:01:07.459Z,9.70
2019-04-11T20:03:37.687Z,9.60
2019-04-11T20:06:07.924Z,9.60
2019-04-11T20:08:38.176Z,9.60
2019-04-11T20:11:08.556Z,9.60
2019-04-11T20:13:41.265Z,9.50
2019-04-11T20:16:12.650Z,9.50
2019-04-11T20:18:50.888Z,9.60
2019-04-11T20:21:15.603Z,9.60
2019-04-11T20:23:46.037Z,9.50
2019-04-11T20:26:19.989Z,9.50
2019-04-11T20:28:51.023Z,9.50
2019-04-11T20:31:21.616Z,9.50
2019-04-11T20:33:52.055Z,9.50
2019-04-11T20:36:32.751Z,9.50
2019-04-11T20:38:54.264Z,9.50
2019-04-11T20:41:26.227Z,9.50
2019-04-11T20:43:57.242Z,9.50
2019-04-11T20:46:29.094Z,9.60
2019-04-11T20:48:59.640Z,9.60
2019-04-11T20:51:29.851Z,9.50
2019-04-11T20:54:01.653Z,9.50
2019-04-11T20:56:31.921Z,9.50
2019-04-11T20:59:02.160Z,9.50
2019-04-11T21:01:32.354Z,9.50
2019-04-11T21:04:05.619Z,9.50
2019-04-11T21:06:35.874Z,9.50
2019-04-11T21:09:09.179Z,9.50
2019-04-11T21:11:39.459Z,9.50
2019-04-11T21:14:09.663Z,9.40
2019-04-11T21:16:41.553Z,9.40
2019-04-11T21:19:11.917Z,9.50
2019-04-11T21:21:42.228Z,9.50
2019-04-11T21:24:12.483Z,9.50
2019-04-11T21:26:45.161Z,9.50
2019-04-11T21:29:16.273Z,9.50
2019-04-11T21:31:46.661Z,9.60
2019-04-11T21:34:18.423Z,9.40
2019-04-11T21:36:48.706Z,9.40
2019-04-11T21:39:18.933Z,9.40
2019-04-11T21:41:49.331Z,9.40
2019-04-11T21:44:19.603Z,9.40
2019-04-11T21:46:49.845Z,9.40
2019-04-11T21:49:20.121Z,9.40
2019-04-11T21:51:50.348Z,9.40
2019-04-11T21:54:20.590Z,9.40
2019-04-11T21:56:51.063Z,9.50
2019-04-11T21:59:21.320Z,9.50
2019-04-11T22:01:53.800Z,9.60
2019-04-11T22:04:26.906Z,9.60
2019-04-11T22:07:00.688Z,9.60
2019-04-11T22:09:28.945Z,9.60
2019-04-11T22:11:59.169Z,9.60
2019-04-11T22:14:29.396Z,9.60
2019-04-11T22:16:59.644Z,9.60
2019-04-11T22:19:30.346Z,9.60
2019-04-11T22:22:00.589Z,9.50
2019-04-11T22:24:32.449Z,9.50
2019-04-11T22:27:04.271Z,9.60
2019-04-11T22:29:34.470Z,9.50
2019-04-11T22:32:04.698Z,9.40
2019-04-11T22:34:36.595Z,9.40
2019-04-11T22:37:07.158Z,9.40
2019-04-11T22:39:37.415Z,9.50
2019-04-11T22:42:07.621Z,9.40
2019-04-11T22:44:39.471Z,9.40
2019-04-11T22:47:09.669Z,9.40
2019-04-11T22:49:40.069Z,9.50
2019-04-11T22:52:12.215Z,9.40
2019-04-11T22:54:42.665Z,9.40
2019-04-11T22:57:12.957Z,9.50
2019-04-11T22:59:45.293Z,9.50
2019-04-11T23:02:17.680Z,9.60
2019-04-11T23:04:47.995Z,9.60
2019-04-11T23:07:18.612Z,9.60
2019-04-11T23:09:49.513Z,9.50
2019-04-11T23:12:19.861Z,9.50
2019-04-11T23:14:50.228Z,9.40
2019-04-11T23:17:20.576Z,9.40
2019-04-11T23:19:50.885Z,9.50
2019-04-11T23:22:21.111Z,9.50
2019-04-11T23:24:51.335Z,9.50
2019-04-11T23:27:21.633Z,9.50
2019-04-11T23:29:51.854Z,9.40
2019-04-11T23:32:22.056Z,9.50
2019-04-11T23:34:52.699Z,9.50
2019-04-11T23:37:23.711Z,9.50
2019-04-11T23:39:53.907Z,9.50
2019-04-11T23:42:24.179Z,9.50
2019-04-11T23:44:54.484Z,9.50
2019-04-11T23:47:24.737Z,9.40
2019-04-11T23:49:56.099Z,9.40
2019-04-11T23:52:27.424Z,9.40
2019-04-11T23:54:58.195Z,9.40
2019-04-11T23:57:31.191Z,9.30
